Time;durP1;ratioP1;P1;durP2;ratioP2;P2;SDS_P1;SDS_P2;PMS_P1;PMS_P2;Temp;Humidity;BMP_temperature;BMP_pressure;BME280_temperature;BME280_humidity;BME280_pressure;Samples;Min_cycle;Max_cycle;Signal;HPM_P1;HPM_P2
2022/03/17 00:00:54;;;;;;;27.88;20.55;;;;;;;;;;5164702;27;20613;-75
2022/03/17 00:03:20;;;;;;;25.37;21.13;;;;;;;;;;5083281;28;20539;-74
2022/03/17 00:05:47;;;;;;;27.95;21.60;;;;;;;;;;5016942;28;20434;-74
2022/03/17 00:08:13;;;;;;;25.75;20.50;;;;;;;;;;4962397;28;20284;-75
2022/03/17 00:10:39;;;;;;;25.50;21.63;;;;;;;;;;4915913;28;20198;-74
2022/03/17 00:13:05;;;;;;;24.65;20.23;;;;;;;;;;4676142;30;20661;-76
2022/03/17 00:17:16;;;;;;;26.45;21.00;;;;;;;;;;5180209;27;20509;-76
2022/03/17 00:19:42;;;;;;;24.43;20.20;;;;;;;;;;5171327;27;20196;-76
2022/03/17 00:22:09;;;;;;;28.57;21.40;;;;;;;;;;5192334;27;20480;-75
2022/03/17 00:24:38;;;;;;;25.83;21.25;;;;;;;;;;5151667;27;20864;-76
2022/03/17 00:27:08;;;;;;;25.85;21.27;;;;;;;;;;5103844;28;20296;-76
2022/03/17 00:29:34;;;;;;;33.63;21.70;;;;;;;;;;5016147;28;20202;-76
2022/03/17 00:32:00;;;;;;;23.85;20.15;;;;;;;;;;5039603;28;20301;-76
2022/03/17 00:34:26;;;;;;;25.37;20.73;;;;;;;;;;5050892;28;20697;-76
2022/03/17 00:36:52;;;;;;;23.60;20.35;;;;;;;;;;4973158;28;20486;-76
2022/03/17 00:41:12;;;;;;;25.70;21.98;;;;;;;;;;5193335;27;20480;-77
2022/03/17 00:43:38;;;;;;;24.88;20.23;;;;;;;;;;5188308;27;20527;-75
2022/03/17 00:46:04;;;;;;;25.47;20.37;;;;;;;;;;5189539;27;20195;-75
2022/03/17 00:48:30;;;;;;;24.83;21.25;;;;;;;;;;5170912;27;20483;-75
2022/03/17 00:50:56;;;;;;;25.90;21.92;;;;;;;;;;5115055;27;20548;-76
2022/03/17 00:53:22;;;;;;;25.70;21.00;;;;;;;;;;5090335;28;20207;-76
2022/03/17 00:55:48;;;;;;;22.83;19.13;;;;;;;;;;5101720;28;20436;-74
2022/03/17 00:58:14;;;;;;;27.47;22.07;;;;;;;;;;5096844;28;20437;-76
2022/03/17 01:00:40;;;;;;;24.97;21.20;;;;;;;;;;5047572;28;20535;-75
2022/03/17 01:06:25;;;;;;;27.05;22.67;;;;;;;;;;5187317;27;20963;-74
2022/03/17 01:08:51;;;;;;;25.23;20.30;;;;;;;;;;5171032;27;20185;-76
2022/03/17 01:11:17;;;;;;;25.73;21.70;;;;;;;;;;5172704;27;20839;-74
2022/03/17 01:13:43;;;;;;;24.88;20.58;;;;;;;;;;5162923;27;20424;-75
2022/03/17 01:16:10;;;;;;;27.23;21.85;;;;;;;;;;5118841;27;20218;-74
2022/03/17 01:18:36;;;;;;;29.50;22.42;;;;;;;;;;5109220;28;20269;-78
2022/03/17 01:21:02;;;;;;;25.07;21.10;;;;;;;;;;5133703;27;20286;-76
2022/03/17 01:23:27;;;;;;;25.53;20.43;;;;;;;;;;5098246;28;20526;-75
2022/03/17 01:25:53;;;;;;;27.70;21.00;;;;;;;;;;5075543;28;20573;-76
2022/03/17 01:28:20;;;;;;;28.60;22.67;;;;;;;;;;4981835;28;20442;-77
2022/03/17 01:32:06;;;;;;;28.73;21.88;;;;;;;;;;5193003;27;20488;-74
2022/03/17 01:34:32;;;;;;;24.30;19.98;;;;;;;;;;5187708;27;20188;-74
2022/03/17 01:36:58;;;;;;;28.10;22.80;;;;;;;;;;5181491;27;20220;-75
2022/03/17 01:39:24;;;;;;;29.17;22.80;;;;;;;;;;5170615;27;20422;-75
2022/03/17 01:41:50;;;;;;;29.27;23.63;;;;;;;;;;5127873;27;20202;-75
2022/03/17 01:44:16;;;;;;;27.03;22.30;;;;;;;;;;5075547;28;20899;-75
2022/03/17 01:49:27;;;;;;;27.33;22.13;;;;;;;;;;4931268;28;20210;-76
2022/03/17 01:51:53;;;;;;;24.20;21.17;;;;;;;;;;4920087;28;20279;-74
2022/03/17 01:56:53;;;;;;;25.05;21.52;;;;;;;;;;5183215;27;20303;-73
2022/03/17 01:59:21;;;;;;;26.17;21.17;;;;;;;;;;5187961;27;20184;-76
2022/03/17 02:01:48;;;;;;;27.15;23.10;;;;;;;;;;5192570;27;20433;-75
2022/03/17 02:04:14;;;;;;;27.17;22.52;;;;;;;;;;5134438;27;20206;-77
2022/03/17 02:06:42;;;;;;;26.40;22.10;;;;;;;;;;5099528;28;20212;-77
2022/03/17 02:09:08;;;;;;;25.23;21.88;;;;;;;;;;5082330;28;20913;-74
2022/03/17 02:14:22;;;;;;;25.70;22.23;;;;;;;;;;4907418;28;20206;-76
2022/03/17 02:16:49;;;;;;;28.52;22.75;;;;;;;;;;4846874;29;20593;-76
2022/03/17 02:20:50;;;;;;;26.88;22.10;;;;;;;;;;5193103;27;20831;-74
2022/03/17 02:26:03;;;;;;;28.02;22.83;;;;;;;;;;5159832;27;20281;-74
2022/03/17 02:28:29;;;;;;;28.05;23.02;;;;;;;;;;5135229;27;20260;-74
2022/03/17 02:30:56;;;;;;;29.77;22.60;;;;;;;;;;5059888;28;20209;-75
2022/03/17 02:33:22;;;;;;;27.25;23.05;;;;;;;;;;5044143;28;20247;-76
2022/03/17 02:35:49;;;;;;;29.15;23.90;;;;;;;;;;5057180;28;20193;-76
2022/03/17 02:38:16;;;;;;;29.00;21.98;;;;;;;;;;4967571;28;20198;-76
2022/03/17 02:40:43;;;;;;;29.17;22.80;;;;;;;;;;4943187;28;20290;-75
2022/03/17 02:45:17;;;;;;;30.90;22.60;;;;;;;;;;5192871;27;20488;-77
2022/03/17 02:47:43;;;;;;;25.85;22.27;;;;;;;;;;5171496;27;20201;-75
2022/03/17 02:50:13;;;;;;;32.42;25.20;;;;;;;;;;5152038;27;20197;-74
2022/03/17 02:52:39;;;;;;;28.30;23.80;;;;;;;;;;5139405;27;20274;-74
2022/03/17 02:55:05;;;;;;;29.00;23.77;;;;;;;;;;5096922;28;20638;-76
2022/03/17 02:57:31;;;;;;;26.83;22.45;;;;;;;;;;5074242;28;20628;-76
2022/03/17 02:59:57;;;;;;;30.45;22.80;;;;;;;;;;5054889;28;20554;-75
2022/03/17 03:02:23;;;;;;;29.07;25.73;;;;;;;;;;5043948;28;20215;-75
2022/03/17 03:04:50;;;;;;;30.53;24.40;;;;;;;;;;4944985;28;20481;-75
2022/03/17 03:09:56;;;;;;;31.00;24.80;;;;;;;;;;5193174;27;20804;-76
2022/03/17 03:12:22;;;;;;;34.30;25.92;;;;;;;;;;5187897;27;20578;-77
2022/03/17 03:14:48;;;;;;;26.25;23.33;;;;;;;;;;5192242;27;20275;-77
2022/03/17 03:17:15;;;;;;;35.63;26.42;;;;;;;;;;5178656;27;20563;-75
2022/03/17 03:19:41;;;;;;;28.08;24.17;;;;;;;;;;5144121;27;20191;-74
2022/03/17 03:22:07;;;;;;;30.67;23.73;;;;;;;;;;5112575;27;20193;-75
2022/03/17 03:24:33;;;;;;;28.05;24.52;;;;;;;;;;5145573;27;20322;-74
2022/03/17 03:26:59;;;;;;;32.00;24.80;;;;;;;;;;5138994;27;20210;-75
2022/03/17 03:29:28;;;;;;;30.85;24.75;;;;;;;;;;5094645;28;20242;-74
2022/03/17 03:34:33;;;;;;;31.10;26.17;;;;;;;;;;5193268;27;20779;-76
2022/03/17 03:39:44;;;;;;;32.50;25.40;;;;;;;;;;5139936;27;20673;-76
2022/03/17 03:42:11;;;;;;;31.40;24.42;;;;;;;;;;5138090;27;20294;-76
2022/03/17 03:44:38;;;;;;;28.75;23.55;;;;;;;;;;5081006;28;20289;-77
2022/03/17 03:47:05;;;;;;;29.92;24.35;;;;;;;;;;5036259;28;20208;-77
2022/03/17 03:49:31;;;;;;;32.22;23.50;;;;;;;;;;5038754;28;20187;-77
2022/03/17 03:51:57;;;;;;;29.13;24.35;;;;;;;;;;4922265;28;20244;-75
2022/03/17 03:56:16;;;;;;;27.90;23.90;;;;;;;;;;5188944;27;20483;-77
2022/03/17 03:58:42;;;;;;;31.10;24.90;;;;;;;;;;5188474;27;20257;-76
2022/03/17 04:01:08;;;;;;;32.40;25.70;;;;;;;;;;5192441;27;20188;-77
2022/03/17 04:03:34;;;;;;;29.20;24.07;;;;;;;;;;5157361;27;20474;-77
2022/03/17 04:06:00;;;;;;;30.42;24.13;;;;;;;;;;5104085;28;20472;-77
2022/03/17 04:08:26;;;;;;;33.38;27.67;;;;;;;;;;5095154;28;20221;-75
2022/03/17 04:10:52;;;;;;;32.90;25.80;;;;;;;;;;5046761;28;20201;-75
2022/03/17 04:13:18;;;;;;;37.07;28.00;;;;;;;;;;4983234;28;20474;-77
2022/03/17 04:15:44;;;;;;;32.45;25.85;;;;;;;;;;4953064;28;20472;-75
2022/03/17 04:20:48;;;;;;;32.83;27.25;;;;;;;;;;5193089;27;21031;-75
2022/03/17 04:23:14;;;;;;;42.90;27.58;;;;;;;;;;5187907;27;20192;-74
2022/03/17 04:25:40;;;;;;;36.00;27.70;;;;;;;;;;5191791;27;20607;-75
2022/03/17 04:28:06;;;;;;;34.10;27.10;;;;;;;;;;5171112;27;21014;-76
2022/03/17 04:30:33;;;;;;;33.63;27.67;;;;;;;;;;5146752;27;20200;-75
2022/03/17 04:32:59;;;;;;;36.72;28.05;;;;;;;;;;5135616;27;20503;-75
2022/03/17 04:35:25;;;;;;;34.92;27.20;;;;;;;;;;5060623;28;20217;-76
2022/03/17 04:37:51;;;;;;;34.35;26.60;;;;;;;;;;4964789;28;20225;-77
2022/03/17 04:40:17;;;;;;;34.67;26.27;;;;;;;;;;4898827;29;20236;-75
2022/03/17 04:45:01;;;;;;;34.45;28.15;;;;;;;;;;5192991;27;20480;-74
2022/03/17 04:47:27;;;;;;;40.72;30.70;;;;;;;;;;5172925;27;20203;-74
2022/03/17 04:49:54;;;;;;;38.20;29.67;;;;;;;;;;5170989;27;20709;-75
2022/03/17 04:55:05;;;;;;;42.55;28.90;;;;;;;;;;5080929;28;20255;-76
2022/03/17 04:57:31;;;;;;;42.50;30.45;;;;;;;;;;5010992;28;20302;-74
2022/03/17 04:59:57;;;;;;;40.30;28.58;;;;;;;;;;4999923;28;20276;-74
2022/03/17 05:02:23;;;;;;;36.75;27.55;;;;;;;;;;5012222;28;20293;-75
2022/03/17 05:04:51;;;;;;;42.73;30.27;;;;;;;;;;4905490;29;20229;-74
2022/03/17 05:09:49;;;;;;;38.33;28.42;;;;;;;;;;5193070;27;20282;-75
2022/03/17 05:12:16;;;;;;;43.42;29.45;;;;;;;;;;5187758;27;20218;-75
2022/03/17 05:14:42;;;;;;;43.58;29.25;;;;;;;;;;5192144;27;20241;-75
2022/03/17 05:17:08;;;;;;;41.83;29.33;;;;;;;;;;5179427;27;20645;-77
2022/03/17 05:19:34;;;;;;;38.00;27.20;;;;;;;;;;5163675;27;20778;-75
2022/03/17 05:22:00;;;;;;;39.77;29.70;;;;;;;;;;5150866;27;20478;-75
2022/03/17 05:24:26;;;;;;;49.47;32.30;;;;;;;;;;5115911;28;20493;-75
2022/03/17 05:26:54;;;;;;;42.20;29.63;;;;;;;;;;5092311;28;20216;-75
2022/03/17 05:29:20;;;;;;;39.35;29.20;;;;;;;;;;4976580;28;20224;-75
2022/03/17 05:34:15;;;;;;;46.65;31.42;;;;;;;;;;5192623;27;20476;-75
2022/03/17 05:36:41;;;;;;;53.15;33.95;;;;;;;;;;5179451;27;20289;-75
2022/03/17 05:39:07;;;;;;;34.13;19.50;;;;;;;;;;5170890;27;20238;-75
2022/03/17 05:41:33;;;;;;;40.60;25.33;;;;;;;;;;5170653;27;20193;-75
2022/03/17 05:43:59;;;;;;;37.07;23.80;;;;;;;;;;5101388;28;20443;-76
2022/03/17 05:46:25;;;;;;;36.75;22.40;;;;;;;;;;5038677;28;20495;-77
2022/03/17 05:48:52;;;;;;;32.58;21.50;;;;;;;;;;5023484;28;20206;-77
2022/03/17 05:51:18;;;;;;;30.58;19.98;;;;;;;;;;4967531;28;20222;-77
2022/03/17 05:53:44;;;;;;;32.40;22.40;;;;;;;;;;4875128;29;20239;-77
2022/03/17 05:59:26;;;;;;;35.08;23.90;;;;;;;;;;5192800;27;20486;-77
2022/03/17 06:01:52;;;;;;;31.35;18.70;;;;;;;;;;5187600;27;20537;-77
2022/03/17 06:04:18;;;;;;;48.33;29.50;;;;;;;;;;5191688;27;20199;-77
2022/03/17 06:06:44;;;;;;;49.40;28.57;;;;;;;;;;5182567;27;20526;-77
2022/03/17 06:09:10;;;;;;;47.90;27.23;;;;;;;;;;5105228;27;20515;-77
2022/03/17 06:11:36;;;;;;;53.20;33.43;;;;;;;;;;5011156;28;20427;-77
2022/03/17 06:14:02;;;;;;;55.70;34.40;;;;;;;;;;5006474;28;20429;-78
2022/03/17 06:16:28;;;;;;;60.77;35.50;;;;;;;;;;5006065;28;20930;-77
2022/03/17 06:18:54;;;;;;;60.57;34.03;;;;;;;;;;4994107;28;20474;-77
2022/03/17 06:23:22;;;;;;;61.55;37.78;;;;;;;;;;5193133;27;20979;-77
2022/03/17 06:25:49;;;;;;;67.75;36.70;;;;;;;;;;5168184;27;20606;-77
2022/03/17 06:28:15;;;;;;;65.20;37.22;;;;;;;;;;5133685;27;20213;-77
2022/03/17 06:30:41;;;;;;;63.63;35.40;;;;;;;;;;5169014;27;20189;-76
2022/03/17 06:33:08;;;;;;;57.15;34.97;;;;;;;;;;5132532;27;20299;-76
2022/03/17 06:35:34;;;;;;;53.28;34.28;;;;;;;;;;5116439;28;20529;-76
2022/03/17 06:38:01;;;;;;;59.20;37.92;;;;;;;;;;5091089;28;20211;-77
2022/03/17 06:40:28;;;;;;;71.00;38.60;;;;;;;;;;5099869;28;20240;-76
2022/03/17 06:42:55;;;;;;;54.67;29.85;;;;;;;;;;5008050;28;20569;-76
2022/03/17 06:48:00;;;;;;;54.90;32.13;;;;;;;;;;5173871;27;20300;-76
2022/03/17 06:50:26;;;;;;;58.30;35.28;;;;;;;;;;5168335;27;20288;-75
2022/03/17 06:52:52;;;;;;;50.22;31.85;;;;;;;;;;5191826;27;20628;-75
2022/03/17 06:55:19;;;;;;;47.38;26.65;;;;;;;;;;5190569;27;20829;-77
2022/03/17 06:57:45;;;;;;;31.92;20.08;;;;;;;;;;5128110;27;20206;-75
2022/03/17 07:00:13;;;;;;;33.28;21.13;;;;;;;;;;5019847;28;20577;-75
2022/03/17 07:02:39;;;;;;;29.13;20.27;;;;;;;;;;5040677;28;20215;-74
2022/03/17 07:05:05;;;;;;;31.52;22.15;;;;;;;;;;5051416;28;20184;-75
2022/03/17 07:10:06;;;;;;;36.22;21.10;;;;;;;;;;5192964;27;20294;-76
2022/03/17 07:12:32;;;;;;;28.08;20.52;;;;;;;;;;5188060;27;20192;-75
2022/03/17 07:14:58;;;;;;;30.25;18.30;;;;;;;;;;5189709;27;20216;-75
2022/03/17 07:17:24;;;;;;;28.58;20.00;;;;;;;;;;5175712;27;20208;-75
2022/03/17 07:22:23;;;;;;;26.15;15.88;;;;;;;;;;5056293;28;20188;-75
2022/03/17 07:24:49;;;;;;;30.58;14.80;;;;;;;;;;5062384;28;20188;-75
2022/03/17 07:27:15;;;;;;;24.55;13.98;;;;;;;;;;4959034;28;20572;-75
2022/03/17 07:29:41;;;;;;;27.83;15.87;;;;;;;;;;4901643;29;20229;-77
2022/03/17 07:34:46;;;;;;;27.17;15.13;;;;;;;;;;5192840;27;20496;-77
2022/03/17 07:37:12;;;;;;;22.60;14.57;;;;;;;;;;5174717;27;20219;-77
2022/03/17 07:39:40;;;;;;;18.70;13.93;;;;;;;;;;5134219;27;20647;-75
2022/03/17 07:42:06;;;;;;;24.13;13.40;;;;;;;;;;5148757;27;20552;-78
2022/03/17 07:44:35;;;;;;;14.05;9.90;;;;;;;;;;5136654;27;20196;-76
2022/03/17 07:47:01;;;;;;;14.18;10.00;;;;;;;;;;5047476;28;20213;-76
2022/03/17 07:49:28;;;;;;;9.52;7.10;;;;;;;;;;4999976;28;20574;-75
2022/03/17 07:51:54;;;;;;;12.23;10.18;;;;;;;;;;4941030;28;20210;-76
2022/03/17 07:54:20;;;;;;;13.77;9.50;;;;;;;;;;4809933;29;20289;-77
2022/03/17 07:59:25;;;;;;;18.95;7.15;;;;;;;;;;5181983;27;21020;-76
2022/03/17 08:01:51;;;;;;;5.70;4.05;;;;;;;;;;5186283;27;20189;-76
2022/03/17 08:04:17;;;;;;;7.43;5.97;;;;;;;;;;5188842;27;20263;-76
2022/03/17 08:06:43;;;;;;;9.03;5.90;;;;;;;;;;5175985;27;20292;-76
2022/03/17 08:09:09;;;;;;;11.98;5.63;;;;;;;;;;5100336;28;20417;-76
2022/03/17 08:11:35;;;;;;;8.80;5.97;;;;;;;;;;5092632;27;20220;-75
2022/03/17 08:14:01;;;;;;;9.93;5.57;;;;;;;;;;5115730;27;20504;-76
2022/03/17 08:16:27;;;;;;;10.00;6.60;;;;;;;;;;4972267;28;20814;-76
2022/03/17 08:18:53;;;;;;;8.97;6.30;;;;;;;;;;4860784;29;20480;-76
2022/03/17 08:23:59;;;;;;;13.15;6.82;;;;;;;;;;5192990;27;20323;-75
2022/03/17 08:26:25;;;;;;;11.40;6.97;;;;;;;;;;5147857;27;20213;-76
2022/03/17 08:28:51;;;;;;;11.47;6.77;;;;;;;;;;5167660;27;20511;-75
2022/03/17 08:31:17;;;;;;;9.73;6.60;;;;;;;;;;5148241;27;20430;-76
2022/03/17 08:33:43;;;;;;;12.70;8.37;;;;;;;;;;5094217;28;20276;-76
2022/03/17 08:36:09;;;;;;;7.93;7.13;;;;;;;;;;5053207;28;20958;-76
2022/03/17 08:38:35;;;;;;;10.27;7.55;;;;;;;;;;5036014;28;20800;-76
2022/03/17 08:41:01;;;;;;;12.93;8.55;;;;;;;;;;4921053;28;20204;-75
2022/03/17 08:43:27;;;;;;;14.65;8.35;;;;;;;;;;4858363;29;20231;-77
2022/03/17 08:50:44;;;;;;;11.88;7.70;;;;;;;;;;5121913;28;20278;-76
2022/03/17 08:53:10;;;;;;;11.00;7.90;;;;;;;;;;5108766;28;20198;-75
2022/03/17 08:55:37;;;;;;;10.27;8.75;;;;;;;;;;5126334;28;20260;-74
2022/03/17 08:58:06;;;;;;;11.93;7.95;;;;;;;;;;5068192;28;20304;-75
2022/03/17 09:00:34;;;;;;;12.05;8.77;;;;;;;;;;5030587;28;20189;-78
2022/03/17 09:03:02;;;;;;;12.45;9.23;;;;;;;;;;4977251;28;20196;-76
2022/03/17 09:05:28;;;;;;;10.50;9.40;;;;;;;;;;4881671;29;20183;-76
2022/03/17 09:07:55;;;;;;;12.55;9.80;;;;;;;;;;4920172;29;20228;-75
2022/03/17 09:12:55;;;;;;;13.13;10.27;;;;;;;;;;5193123;27;20485;-75
2022/03/17 09:15:22;;;;;;;10.15;8.80;;;;;;;;;;5187656;27;20272;-75
2022/03/17 09:17:48;;;;;;;11.98;8.50;;;;;;;;;;5174578;27;20209;-77
2022/03/17 09:20:15;;;;;;;11.95;9.60;;;;;;;;;;5165646;27;20622;-77
2022/03/17 09:22:42;;;;;;;11.65;8.85;;;;;;;;;;5112017;28;20199;-77
2022/03/17 09:25:09;;;;;;;14.02;10.32;;;;;;;;;;5025914;28;20213;-76
2022/03/17 09:27:35;;;;;;;11.13;8.95;;;;;;;;;;5006081;28;20212;-77
2022/03/17 09:30:01;;;;;;;10.43;9.37;;;;;;;;;;4898151;28;20288;-76
2022/03/17 09:32:27;;;;;;;11.35;8.77;;;;;;;;;;4784225;29;20498;-75
2022/03/17 09:37:22;;;;;;;15.13;8.73;;;;;;;;;;5178938;27;20487;-74
2022/03/17 09:39:49;;;;;;;11.07;9.47;;;;;;;;;;5175737;27;20181;-76
2022/03/17 09:42:16;;;;;;;12.82;8.85;;;;;;;;;;5173654;27;20454;-74
2022/03/17 09:44:44;;;;;;;10.32;9.18;;;;;;;;;;5191391;27;20280;-75
2022/03/17 09:47:11;;;;;;;11.77;8.93;;;;;;;;;;5162148;27;20726;-75
2022/03/17 09:49:40;;;;;;;13.95;10.63;;;;;;;;;;5074779;28;20267;-76
2022/03/17 09:52:12;;;;;;;8.35;7.40;;;;;;;;;;5065469;28;20196;-76
2022/03/17 09:54:39;;;;;;;9.15;8.20;;;;;;;;;;4946907;28;20203;-75
2022/03/17 09:57:05;;;;;;;14.25;7.82;;;;;;;;;;4963555;28;20256;-75
2022/03/17 10:01:19;;;;;;;13.00;7.60;;;;;;;;;;5192994;27;20472;-76
2022/03/17 10:03:46;;;;;;;8.25;7.45;;;;;;;;;;5187911;27;20192;-77
2022/03/17 10:06:14;;;;;;;9.50;7.20;;;;;;;;;;5188142;27;20761;-77
2022/03/17 10:08:41;;;;;;;8.95;6.22;;;;;;;;;;5140450;27;20561;-76
2022/03/17 10:11:07;;;;;;;8.73;6.68;;;;;;;;;;5088802;27;20226;-76
2022/03/17 10:13:39;;;;;;;10.02;6.97;;;;;;;;;;5049581;28;20180;-76
2022/03/17 10:16:05;;;;;;;9.38;5.80;;;;;;;;;;5019810;28;20509;-76
2022/03/17 10:18:36;;;;;;;8.18;5.78;;;;;;;;;;4919367;28;20270;-77
2022/03/17 10:21:09;;;;;;;6.82;4.93;;;;;;;;;;4769243;29;20222;-76
2022/03/17 10:26:00;;;;;;;7.78;4.63;;;;;;;;;;5191372;27;20488;-76
2022/03/17 10:28:26;;;;;;;13.03;5.70;;;;;;;;;;5170640;27;20625;-75
2022/03/17 10:31:02;;;;;;;5.63;3.45;;;;;;;;;;5151656;27;20482;-75
2022/03/17 10:33:29;;;;;;;8.20;3.22;;;;;;;;;;5166142;27;20688;-75
2022/03/17 10:35:55;;;;;;;4.03;3.10;;;;;;;;;;5161760;27;20591;-75
2022/03/17 10:38:27;;;;;;;5.53;3.53;;;;;;;;;;5160493;27;20193;-76
2022/03/17 10:41:12;;;;;;;5.60;3.38;;;;;;;;;;5164032;27;20205;-76
2022/03/17 10:43:39;;;;;;;7.35;3.10;;;;;;;;;;4985851;28;20711;-75
2022/03/17 10:46:08;;;;;;;7.78;3.45;;;;;;;;;;4961002;28;20206;-75
2022/03/17 10:50:12;;;;;;;5.10;3.53;;;;;;;;;;5192965;27;20503;-75
2022/03/17 10:52:44;;;;;;;8.07;4.25;;;;;;;;;;5187927;27;20534;-75
2022/03/17 10:55:11;;;;;;;8.20;3.40;;;;;;;;;;5172565;27;20521;-77
2022/03/17 10:57:37;;;;;;;8.95;3.80;;;;;;;;;;5175556;27;20299;-75
2022/03/17 11:00:09;;;;;;;7.40;2.72;;;;;;;;;;5164617;27;20202;-76
2022/03/17 11:02:37;;;;;;;4.50;2.35;;;;;;;;;;5128616;27;20197;-76
2022/03/17 11:05:06;;;;;;;6.18;2.80;;;;;;;;;;5165071;27;20201;-76
2022/03/17 11:07:32;;;;;;;8.60;2.78;;;;;;;;;;5108987;27;20222;-75
2022/03/17 11:10:05;;;;;;;6.18;2.63;;;;;;;;;;5056030;28;20212;-75
2022/03/17 11:14:09;;;;;;;8.52;2.17;;;;;;;;;;5193311;27;20472;-76
2022/03/17 11:16:40;;;;;;;7.53;2.55;;;;;;;;;;5164281;27;20219;-76
2022/03/17 11:19:09;;;;;;;6.55;5.13;;;;;;;;;;5150398;27;20784;-74
2022/03/17 11:21:35;;;;;;;7.68;2.55;;;;;;;;;;5140487;27;20252;-74
2022/03/17 11:24:06;;;;;;;4.60;2.43;;;;;;;;;;5134600;27;20206;-76
2022/03/17 11:26:34;;;;;;;9.65;2.65;;;;;;;;;;5137946;27;20440;-75
2022/03/17 11:29:21;;;;;;;2.78;2.10;;;;;;;;;;5109708;27;20233;-76
2022/03/17 11:31:57;;;;;;;9.93;2.35;;;;;;;;;;4914498;28;20198;-76
2022/03/17 11:34:38;;;;;;;3.85;2.08;;;;;;;;;;4791543;29;20230;-76
2022/03/17 11:39:19;;;;;;;3.10;2.05;;;;;;;;;;5193071;27;20496;-76
2022/03/17 11:41:45;;;;;;;5.10;1.95;;;;;;;;;;5172447;27;20663;-75
2022/03/17 11:44:11;;;;;;;3.65;2.13;;;;;;;;;;5174115;27;20189;-75
2022/03/17 11:46:40;;;;;;;4.82;1.88;;;;;;;;;;5163194;27;20209;-75
2022/03/17 11:49:19;;;;;;;3.22;2.30;;;;;;;;;;5117472;28;20194;-75
2022/03/17 11:51:56;;;;;;;6.47;1.85;;;;;;;;;;5080046;28;20195;-76
2022/03/17 11:54:22;;;;;;;6.32;2.42;;;;;;;;;;4951828;28;20584;-76
2022/03/17 11:56:53;;;;;;;8.85;2.85;;;;;;;;;;4953758;28;20215;-75
2022/03/17 11:59:21;;;;;;;9.50;3.00;;;;;;;;;;4859064;29;20208;-76
2022/03/17 12:04:03;;;;;;;5.63;2.95;;;;;;;;;;5192881;27;20842;-76
2022/03/17 12:06:33;;;;;;;8.77;3.47;;;;;;;;;;5181798;27;20625;-75
2022/03/17 12:09:01;;;;;;;5.32;2.55;;;;;;;;;;5171286;27;20193;-76
2022/03/17 12:11:33;;;;;;;7.30;3.28;;;;;;;;;;5151076;27;20649;-75
2022/03/17 12:14:16;;;;;;;4.90;2.42;;;;;;;;;;5127690;27;20252;-76
2022/03/17 12:16:43;;;;;;;3.53;1.80;;;;;;;;;;5058627;28;20263;-75
2022/03/17 12:19:09;;;;;;;3.45;2.20;;;;;;;;;;5063337;28;20657;-77
2022/03/17 12:21:54;;;;;;;10.97;3.00;;;;;;;;;;5100673;28;20199;-76
2022/03/17 12:27:30;;;;;;;11.15;1.88;;;;;;;;;;5177980;27;20509;-76
2022/03/17 12:30:02;;;;;;;4.00;1.90;;;;;;;;;;5187909;27;20185;-76
2022/03/17 12:32:31;;;;;;;5.30;2.20;;;;;;;;;;5174989;27;20188;-75
2022/03/17 12:34:59;;;;;;;10.80;2.17;;;;;;;;;;5160573;27;20184;-77
2022/03/17 12:37:26;;;;;;;8.25;2.60;;;;;;;;;;5133046;27;20612;-76
2022/03/17 12:39:53;;;;;;;15.60;2.55;;;;;;;;;;5081872;28;20309;-75
2022/03/17 12:42:21;;;;;;;4.80;2.80;;;;;;;;;;5060167;28;20202;-76
2022/03/17 12:45:06;;;;;;;7.88;2.70;;;;;;;;;;5011840;28;20553;-75
2022/03/17 12:47:36;;;;;;;6.68;2.50;;;;;;;;;;4764116;29;20657;-75
2022/03/17 12:52:13;;;;;;;10.48;3.03;;;;;;;;;;5192973;27;20484;-76
2022/03/17 12:54:39;;;;;;;6.47;2.70;;;;;;;;;;5168978;27;20253;-77
2022/03/17 12:57:05;;;;;;;14.23;2.90;;;;;;;;;;5180403;27;20226;-76
2022/03/17 12:59:31;;;;;;;9.13;3.00;;;;;;;;;;5170150;27;20427;-76
2022/03/17 13:01:57;;;;;;;8.20;2.87;;;;;;;;;;5152508;27;20871;-75
2022/03/17 13:04:26;;;;;;;8.25;2.45;;;;;;;;;;5101092;28;20439;-76
2022/03/17 13:06:54;;;;;;;8.13;2.47;;;;;;;;;;5110271;28;20214;-77
2022/03/17 13:09:20;;;;;;;10.43;2.22;;;;;;;;;;5068152;27;20189;-76
2022/03/17 13:17:09;;;;;;;5.85;2.78;;;;;;;;;;5180961;27;20662;-75
2022/03/17 13:19:49;;;;;;;8.10;3.05;;;;;;;;;;5188010;27;20541;-75
2022/03/17 13:22:22;;;;;;;8.25;3.25;;;;;;;;;;5168890;27;20246;-77
2022/03/17 13:24:59;;;;;;;8.85;2.83;;;;;;;;;;5170314;27;20216;-75
2022/03/17 13:27:26;;;;;;;5.90;3.20;;;;;;;;;;5133158;27;20548;-75
2022/03/17 13:29:56;;;;;;;9.77;2.80;;;;;;;;;;5045270;28;20285;-76
2022/03/17 13:32:24;;;;;;;6.28;2.90;;;;;;;;;;5098540;28;20199;-74
2022/03/17 13:35:00;;;;;;;5.93;2.60;;;;;;;;;;4990309;28;20619;-76
2022/03/17 13:37:36;;;;;;;7.40;2.60;;;;;;;;;;4982808;28;20573;-76
2022/03/17 13:42:13;;;;;;;10.05;3.58;;;;;;;;;;5192871;27;20469;-76
2022/03/17 13:44:43;;;;;;;7.18;2.45;;;;;;;;;;5170013;27;20189;-76
2022/03/17 13:47:13;;;;;;;10.48;2.72;;;;;;;;;;5157109;27;20210;-76
2022/03/17 13:49:39;;;;;;;11.23;3.05;;;;;;;;;;5118571;28;20241;-74
2022/03/17 13:52:05;;;;;;;11.10;2.97;;;;;;;;;;5077213;28;20204;-75
2022/03/17 13:54:38;;;;;;;5.30;2.40;;;;;;;;;;5066335;28;20220;-75
2022/03/17 13:57:04;;;;;;;3.95;2.05;;;;;;;;;;5079996;28;20208;-76
2022/03/17 13:59:31;;;;;;;10.80;2.90;;;;;;;;;;5020181;28;20653;-76
2022/03/17 14:02:13;;;;;;;8.43;2.58;;;;;;;;;;5022990;28;20629;-74
2022/03/17 14:07:17;;;;;;;8.00;2.55;;;;;;;;;;5179281;27;20501;-76
2022/03/17 14:09:43;;;;;;;9.03;2.20;;;;;;;;;;5187676;27;20200;-76
2022/03/17 14:12:09;;;;;;;9.25;2.40;;;;;;;;;;5191864;27;20418;-75
2022/03/17 14:14:36;;;;;;;9.43;2.28;;;;;;;;;;5191582;27;20549;-76
2022/03/17 14:17:02;;;;;;;5.70;2.38;;;;;;;;;;5140890;27;20709;-74
2022/03/17 14:19:29;;;;;;;10.30;2.47;;;;;;;;;;5071032;28;20197;-75
2022/03/17 14:24:41;;;;;;;5.15;2.08;;;;;;;;;;5028074;28;20200;-75
2022/03/17 14:27:07;;;;;;;8.45;2.58;;;;;;;;;;5040905;28;20218;-77
2022/03/17 14:32:13;;;;;;;7.95;2.67;;;;;;;;;;5192858;27;20488;-75
2022/03/17 14:34:41;;;;;;;7.63;2.25;;;;;;;;;;5187626;27;20605;-76
2022/03/17 14:37:07;;;;;;;5.43;2.03;;;;;;;;;;5180200;27;20213;-77
2022/03/17 14:39:35;;;;;;;9.00;2.30;;;;;;;;;;5170344;27;20197;-76
2022/03/17 14:42:01;;;;;;;5.80;2.80;;;;;;;;;;5142047;27;20435;-76
2022/03/17 14:44:27;;;;;;;3.87;2.40;;;;;;;;;;5075350;28;20611;-76
2022/03/17 14:46:53;;;;;;;14.67;2.77;;;;;;;;;;5095128;28;20493;-75
2022/03/17 14:49:19;;;;;;;6.40;2.40;;;;;;;;;;5079772;28;20433;-76
2022/03/17 14:51:45;;;;;;;8.33;2.40;;;;;;;;;;4947215;28;21054;-75
2022/03/17 14:56:43;;;;;;;5.35;2.38;;;;;;;;;;5184767;27;20487;-77
2022/03/17 14:59:09;;;;;;;12.35;3.00;;;;;;;;;;5169173;27;20196;-75
2022/03/17 15:01:36;;;;;;;9.13;2.80;;;;;;;;;;5172649;27;20200;-75
2022/03/17 15:04:01;;;;;;;10.93;2.58;;;;;;;;;;5171192;27;20250;-76
2022/03/17 15:06:28;;;;;;;7.53;2.63;;;;;;;;;;5163854;27;20304;-76
2022/03/17 15:08:54;;;;;;;4.53;2.30;;;;;;;;;;5132781;27;20428;-77
2022/03/17 15:11:20;;;;;;;9.17;2.60;;;;;;;;;;5129588;27;20206;-75
2022/03/17 15:13:50;;;;;;;4.50;2.65;;;;;;;;;;5047528;28;20481;-76
2022/03/17 15:16:16;;;;;;;6.47;2.22;;;;;;;;;;4973354;28;20620;-76
2022/03/17 15:21:22;;;;;;;7.30;2.67;;;;;;;;;;5192845;27;21008;-76
2022/03/17 15:23:48;;;;;;;4.35;2.10;;;;;;;;;;5187876;27;20192;-76
2022/03/17 15:26:14;;;;;;;6.78;2.72;;;;;;;;;;5187841;27;20217;-75
2022/03/17 15:31:25;;;;;;;4.70;2.45;;;;;;;;;;5121686;28;20440;-76
2022/03/17 15:33:51;;;;;;;10.88;2.67;;;;;;;;;;5114354;28;20187;-76
2022/03/17 15:36:17;;;;;;;8.60;2.70;;;;;;;;;;5065423;28;20689;-75
2022/03/17 15:38:46;;;;;;;6.60;2.90;;;;;;;;;;5056121;28;20280;-77
2022/03/17 15:41:13;;;;;;;5.30;3.25;;;;;;;;;;5032475;28;20499;-76
2022/03/17 15:45:48;;;;;;;5.22;2.72;;;;;;;;;;5192645;27;20485;-77
2022/03/17 15:48:14;;;;;;;7.85;2.30;;;;;;;;;;5166630;27;20228;-76
2022/03/17 15:50:41;;;;;;;12.18;2.92;;;;;;;;;;5151323;27;20183;-76
2022/03/17 15:53:07;;;;;;;7.40;2.63;;;;;;;;;;5170068;27;20190;-76
2022/03/17 15:55:33;;;;;;;6.63;2.60;;;;;;;;;;5161496;27;20652;-76
2022/03/17 15:57:59;;;;;;;7.87;2.60;;;;;;;;;;5137262;27;20218;-76
2022/03/17 16:00:29;;;;;;;12.27;3.00;;;;;;;;;;5165652;27;20440;-77
2022/03/17 16:02:58;;;;;;;5.45;2.47;;;;;;;;;;5146702;27;20520;-77
2022/03/17 16:05:24;;;;;;;10.57;2.75;;;;;;;;;;5134499;27;20218;-75
2022/03/17 16:15:43;;;;;;;5.15;2.47;;;;;;;;;;5152891;27;20215;-75
2022/03/17 16:18:10;;;;;;;5.63;2.33;;;;;;;;;;5110810;27;20239;-75
2022/03/17 16:20:36;;;;;;;4.13;2.35;;;;;;;;;;5075942;28;20316;-74
2022/03/17 16:23:03;;;;;;;5.05;2.45;;;;;;;;;;5094627;28;20199;-75
2022/03/17 16:25:29;;;;;;;8.20;2.85;;;;;;;;;;5045067;28;20218;-75
2022/03/17 16:27:56;;;;;;;3.78;2.20;;;;;;;;;;5040061;28;20265;-76
2022/03/17 16:30:22;;;;;;;5.63;2.45;;;;;;;;;;5004708;28;20203;-76
2022/03/17 16:35:55;;;;;;;7.07;2.67;;;;;;;;;;5191877;27;21001;-77
2022/03/17 16:38:21;;;;;;;6.93;2.20;;;;;;;;;;5170568;27;20198;-77